sensor_id;sensor_type;location;lat;lon;timestamp;pressure;altitude;pressure_sealevel;temperature;humidity
11692;BME280;33659;42.672;23.354;2023-02-07T00:00:23;95622.28;;;-0.78;53.50
11692;BME280;33659;42.672;23.354;2023-02-07T00:02:50;95629.41;;;-0.80;54.07
11692;BME280;33659;42.672;23.354;2023-02-07T00:05:19;95628.28;;;-0.72;53.99
11692;BME280;33659;42.672;23.354;2023-02-07T00:07:46;95629.97;;;-0.66;54.17
11692;BME280;33659;42.672;23.354;2023-02-07T00:10:13;95627.63;;;-0.68;54.30
11692;BME280;33659;42.672;23.354;2023-02-07T00:12:40;95627.31;;;-0.83;54.63
11692;BME280;33659;42.672;23.354;2023-02-07T00:15:07;95629.88;;;-0.83;54.97
11692;BME280;33659;42.672;23.354;2023-02-07T00:17:35;95639.56;;;-0.85;54.91
11692;BME280;33659;42.672;23.354;2023-02-07T00:20:02;95640.78;;;-0.88;55.04
11692;BME280;33659;42.672;23.354;2023-02-07T00:22:30;95645.25;;;-0.83;55.15
11692;BME280;33659;42.672;23.354;2023-02-07T00:24:57;95650.28;;;-0.76;55.28
11692;BME280;33659;42.672;23.354;2023-02-07T00:27:23;95648.91;;;-0.79;55.24
11692;BME280;33659;42.672;23.354;2023-02-07T00:29:50;95652.25;;;-0.78;55.36
11692;BME280;33659;42.672;23.354;2023-02-07T00:32:17;95649.50;;;-0.77;55.43
11692;BME280;33659;42.672;23.354;2023-02-07T00:34:46;95655.41;;;-0.76;55.56
11692;BME280;33659;42.672;23.354;2023-02-07T00:37:14;95663.28;;;-0.78;55.61
11692;BME280;33659;42.672;23.354;2023-02-07T00:39:41;95662.53;;;-0.78;55.67
11692;BME280;33659;42.672;23.354;2023-02-07T00:42:08;95664.88;;;-0.77;55.63
11692;BME280;33659;42.672;23.354;2023-02-07T00:44:35;95665.44;;;-0.75;55.89
11692;BME280;33659;42.672;23.354;2023-02-07T00:47:01;95663.28;;;-0.78;56.22
11692;BME280;33659;42.672;23.354;2023-02-07T00:49:28;95667.09;;;-0.69;55.95
11692;BME280;33659;42.672;23.354;2023-02-07T00:51:56;95663.19;;;-0.60;55.64
11692;BME280;33659;42.672;23.354;2023-02-07T00:54:23;95668.53;;;-0.49;55.22
11692;BME280;33659;42.672;23.354;2023-02-07T00:56:49;95668.53;;;-0.49;55.30
11692;BME280;33659;42.672;23.354;2023-02-07T00:59:16;95655.94;;;-0.51;55.11
11692;BME280;33659;42.672;23.354;2023-02-07T01:01:43;95663.53;;;-0.44;55.07
11692;BME280;33659;42.672;23.354;2023-02-07T01:04:09;95660.84;;;-0.49;55.40
11692;BME280;33659;42.672;23.354;2023-02-07T01:06:36;95656.50;;;-0.49;55.27
11692;BME280;33659;42.672;23.354;2023-02-07T01:09:05;95654.69;;;-0.48;55.52
11692;BME280;33659;42.672;23.354;2023-02-07T01:11:32;95654.59;;;-0.53;55.39
11692;BME280;33659;42.672;23.354;2023-02-07T01:13:59;95644.69;;;-0.62;55.28
11692;BME280;33659;42.672;23.354;2023-02-07T01:16:28;95654.34;;;-0.52;55.54
11692;BME280;33659;42.672;23.354;2023-02-07T01:18:55;95650.69;;;-0.56;55.60
11692;BME280;33659;42.672;23.354;2023-02-07T01:21:24;95653.94;;;-0.61;55.96
11692;BME280;33659;42.672;23.354;2023-02-07T01:23:51;95649.94;;;-0.57;56.04
11692;BME280;33659;42.672;23.354;2023-02-07T01:26:22;95655.84;;;-0.56;55.93
11692;BME280;33659;42.672;23.354;2023-02-07T01:28:49;95658.72;;;-0.52;55.78
11692;BME280;33659;42.672;23.354;2023-02-07T01:31:16;95646.13;;;-0.54;55.94
11692;BME280;33659;42.672;23.354;2023-02-07T01:33:43;95647.25;;;-0.62;56.06
11692;BME280;33659;42.672;23.354;2023-02-07T01:36:11;95645.00;;;-0.58;55.99
11692;BME280;33659;42.672;23.354;2023-02-07T01:38:38;95642.13;;;-0.62;56.26
11692;BME280;33659;42.672;23.354;2023-02-07T01:41:05;95641.34;;;-0.62;56.07
11692;BME280;33659;42.672;23.354;2023-02-07T01:43:34;95637.88;;;-0.56;56.05
11692;BME280;33659;42.672;23.354;2023-02-07T01:46:01;95640.31;;;-0.49;55.71
11692;BME280;33659;42.672;23.354;2023-02-07T01:48:29;95632.50;;;-0.43;55.68
11692;BME280;33659;42.672;23.354;2023-02-07T01:50:59;95636.97;;;-0.38;55.62
11692;BME280;33659;42.672;23.354;2023-02-07T01:53:29;95629.03;;;-0.37;55.48
11692;BME280;33659;42.672;23.354;2023-02-07T01:55:59;95627.78;;;-0.34;55.25
11692;BME280;33659;42.672;23.354;2023-02-07T01:58:29;95635.47;;;-0.34;55.48
11692;BME280;33659;42.672;23.354;2023-02-07T02:00:58;95629.94;;;-0.43;55.46
11692;BME280;33659;42.672;23.354;2023-02-07T02:03:26;95643.19;;;-0.34;55.34
11692;BME280;33659;42.672;23.354;2023-02-07T02:05:54;95637.50;;;-0.36;55.35
11692;BME280;33659;42.672;23.354;2023-02-07T02:08:21;95626.13;;;-0.52;55.13
11692;BME280;33659;42.672;23.354;2023-02-07T02:11:01;95648.97;;;-0.39;55.76
11692;BME280;33659;42.672;23.354;2023-02-07T02:13:37;95640.06;;;-0.36;55.59
11692;BME280;33659;42.672;23.354;2023-02-07T02:16:16;95638.50;;;-0.37;55.42
11692;BME280;33659;42.672;23.354;2023-02-07T02:19:07;95643.66;;;-0.37;55.41
11692;BME280;33659;42.672;23.354;2023-02-07T02:22:03;95642.09;;;-0.38;55.20
11692;BME280;33659;42.672;23.354;2023-02-07T02:25:00;95641.50;;;-0.40;55.60
11692;BME280;33659;42.672;23.354;2023-02-07T02:27:47;95640.44;;;-0.44;55.91
11692;BME280;33659;42.672;23.354;2023-02-07T02:30:40;95649.69;;;-0.43;55.68
11692;BME280;33659;42.672;23.354;2023-02-07T02:33:22;95643.06;;;-0.39;55.72
11692;BME280;33659;42.672;23.354;2023-02-07T02:35:57;95641.72;;;-0.30;55.40
11692;BME280;33659;42.672;23.354;2023-02-07T02:38:31;95642.63;;;-0.24;55.27
11692;BME280;33659;42.672;23.354;2023-02-07T02:41:02;95649.59;;;-0.20;54.86
11692;BME280;33659;42.672;23.354;2023-02-07T02:43:35;95648.63;;;-0.19;54.92
11692;BME280;33659;42.672;23.354;2023-02-07T02:46:07;95656.34;;;-0.19;55.01
11692;BME280;33659;42.672;23.354;2023-02-07T02:48:38;95654.75;;;-0.20;55.07
11692;BME280;33659;42.672;23.354;2023-02-07T02:51:05;95655.88;;;-0.16;55.11
11692;BME280;33659;42.672;23.354;2023-02-07T02:53:32;95654.75;;;-0.20;54.63
11692;BME280;33659;42.672;23.354;2023-02-07T02:56:12;95654.56;;;-0.30;55.28
11692;BME280;33659;42.672;23.354;2023-02-07T02:58:55;95663.16;;;-0.36;55.15
11692;BME280;33659;42.672;23.354;2023-02-07T03:01:33;95660.38;;;-0.58;55.54
11692;BME280;33659;42.672;23.354;2023-02-07T03:04:19;95659.63;;;-0.70;55.62
11692;BME280;33659;42.672;23.354;2023-02-07T03:07:01;95665.44;;;-0.75;55.57
11692;BME280;33659;42.672;23.354;2023-02-07T03:09:37;95654.50;;;-0.82;56.00
11692;BME280;33659;42.672;23.354;2023-02-07T03:12:13;95660.66;;;-0.83;55.54
11692;BME280;33659;42.672;23.354;2023-02-07T03:14:52;95656.53;;;-0.96;55.73
11692;BME280;33659;42.672;23.354;2023-02-07T03:17:23;95654.72;;;-0.95;55.93
11692;BME280;33659;42.672;23.354;2023-02-07T03:19:57;95659.94;;;-0.90;55.65
11692;BME280;33659;42.672;23.354;2023-02-07T03:22:28;95660.75;;;-0.90;55.84
11692;BME280;33659;42.672;23.354;2023-02-07T03:24:56;95653.50;;;-0.93;55.84
11692;BME280;33659;42.672;23.354;2023-02-07T03:27:27;95663.63;;;-0.98;55.85
11692;BME280;33659;42.672;23.354;2023-02-07T03:29:58;95655.63;;;-1.01;56.00
11692;BME280;33659;42.672;23.354;2023-02-07T03:32:29;95667.97;;;-0.98;56.03
11692;BME280;33659;42.672;23.354;2023-02-07T03:35:04;95655.50;;;-0.95;56.18
11692;BME280;33659;42.672;23.354;2023-02-07T03:37:34;95654.72;;;-0.95;56.28
11692;BME280;33659;42.672;23.354;2023-02-07T03:40:03;95656.41;;;-0.89;55.71
11692;BME280;33659;42.672;23.354;2023-02-07T03:42:33;95654.38;;;-0.87;56.13
11692;BME280;33659;42.672;23.354;2023-02-07T03:45:02;95651.28;;;-0.89;55.58
11692;BME280;33659;42.672;23.354;2023-02-07T03:47:30;95668.66;;;-0.91;55.52
11692;BME280;33659;42.672;23.354;2023-02-07T03:49:58;95666.31;;;-0.93;55.96
11692;BME280;33659;42.672;23.354;2023-02-07T03:52:25;95644.25;;;-0.94;55.63
11692;BME280;33659;42.672;23.354;2023-02-07T03:54:52;95653.06;;;-0.90;56.13
11692;BME280;33659;42.672;23.354;2023-02-07T03:57:18;95655.16;;;-0.87;55.87
11692;BME280;33659;42.672;23.354;2023-02-07T03:59:45;95660.97;;;-0.79;55.89
11692;BME280;33659;42.672;23.354;2023-02-07T04:02:12;95657.75;;;-0.75;55.35
11692;BME280;33659;42.672;23.354;2023-02-07T04:04:39;95658.75;;;-0.76;55.60
11692;BME280;33659;42.672;23.354;2023-02-07T04:07:08;95660.41;;;-0.70;55.68
11692;BME280;33659;42.672;23.354;2023-02-07T04:09:35;95666.66;;;-0.66;55.02
11692;BME280;33659;42.672;23.354;2023-02-07T04:12:02;95664.53;;;-0.57;54.89
11692;BME280;33659;42.672;23.354;2023-02-07T04:14:29;95663.41;;;-0.61;55.06
11692;BME280;33659;42.672;23.354;2023-02-07T04:16:56;95656.84;;;-0.57;55.20
11692;BME280;33659;42.672;23.354;2023-02-07T04:19:23;95660.06;;;-0.50;54.55
11692;BME280;33659;42.672;23.354;2023-02-07T04:21:50;95656.50;;;-0.49;54.61
11692;BME280;33659;42.672;23.354;2023-02-07T04:24:18;95661.50;;;-0.42;54.28
11692;BME280;33659;42.672;23.354;2023-02-07T04:26:44;95660.06;;;-0.38;54.65
11692;BME280;33659;42.672;23.354;2023-02-07T04:29:11;95658.13;;;-0.31;54.16
11692;BME280;33659;42.672;23.354;2023-02-07T04:31:38;95669.06;;;-0.24;53.91
11692;BME280;33659;42.672;23.354;2023-02-07T04:34:06;95663.47;;;-0.21;54.18
11692;BME280;33659;42.672;23.354;2023-02-07T04:36:33;95661.91;;;-0.22;54.08
11692;BME280;33659;42.672;23.354;2023-02-07T04:39:00;95666.66;;;-0.14;53.90
11692;BME280;33659;42.672;23.354;2023-02-07T04:41:28;95664.88;;;-0.13;54.14
11692;BME280;33659;42.672;23.354;2023-02-07T04:43:55;95670.34;;;-0.10;53.70
11692;BME280;33659;42.672;23.354;2023-02-07T04:46:22;95671.13;;;-0.09;53.98
11692;BME280;33659;42.672;23.354;2023-02-07T04:48:49;95670.03;;;-0.13;53.52
11692;BME280;33659;42.672;23.354;2023-02-07T04:51:15;95668.16;;;-0.18;53.73
11692;BME280;33659;42.672;23.354;2023-02-07T04:53:42;95672.50;;;-0.18;53.35
11692;BME280;33659;42.672;23.354;2023-02-07T04:56:09;95682.44;;;-0.22;53.60
11692;BME280;33659;42.672;23.354;2023-02-07T04:58:37;95679.44;;;-0.31;53.99
11692;BME280;33659;42.672;23.354;2023-02-07T05:01:03;95691.59;;;-0.26;53.85
11692;BME280;33659;42.672;23.354;2023-02-07T05:03:30;95688.38;;;-0.33;53.75
11692;BME280;33659;42.672;23.354;2023-02-07T05:05:57;95698.19;;;-0.30;53.84
11692;BME280;33659;42.672;23.354;2023-02-07T05:08:24;95697.84;;;-0.34;54.18
11692;BME280;33659;42.672;23.354;2023-02-07T05:10:51;95689.38;;;-0.34;54.00
11692;BME280;33659;42.672;23.354;2023-02-07T05:13:19;95696.06;;;-0.33;54.15
11692;BME280;33659;42.672;23.354;2023-02-07T05:15:47;95704.88;;;-0.29;54.29
11692;BME280;33659;42.672;23.354;2023-02-07T05:18:13;95680.91;;;-0.46;54.48
11692;BME280;33659;42.672;23.354;2023-02-07T05:20:40;95698.75;;;-0.40;54.62
11692;BME280;33659;42.672;23.354;2023-02-07T05:23:07;95700.41;;;-0.45;54.75
11692;BME280;33659;42.672;23.354;2023-02-07T05:25:34;95706.13;;;-0.43;54.72
11692;BME280;33659;42.672;23.354;2023-02-07T05:28:01;95704.88;;;-0.41;54.60
11692;BME280;33659;42.672;23.354;2023-02-07T05:30:27;95704.09;;;-0.41;54.70
11692;BME280;33659;42.672;23.354;2023-02-07T05:32:55;95710.78;;;-0.40;54.67
11692;BME280;33659;42.672;23.354;2023-02-07T05:35:31;95709.13;;;-0.46;54.59
11692;BME280;33659;42.672;23.354;2023-02-07T05:37:58;95706.47;;;-0.51;55.00
11692;BME280;33659;42.672;23.354;2023-02-07T05:40:24;95713.28;;;-0.57;54.83
11692;BME280;33659;42.672;23.354;2023-02-07T05:42:52;95716.94;;;-0.65;55.09
11692;BME280;33659;42.672;23.354;2023-02-07T05:45:18;95725.44;;;-0.64;55.22
11692;BME280;33659;42.672;23.354;2023-02-07T05:47:45;95730.66;;;-0.59;55.24
11692;BME280;33659;42.672;23.354;2023-02-07T05:50:14;95727.66;;;-0.56;55.18
11692;BME280;33659;42.672;23.354;2023-02-07T05:52:41;95725.53;;;-0.59;55.42
11692;BME280;33659;42.672;23.354;2023-02-07T05:55:08;95734.78;;;-0.58;55.35
11692;BME280;33659;42.672;23.354;2023-02-07T05:57:37;95726.09;;;-0.80;55.90
11692;BME280;33659;42.672;23.354;2023-02-07T06:00:04;95739.25;;;-0.65;55.73
11692;BME280;33659;42.672;23.354;2023-02-07T06:02:31;95731.13;;;-0.62;55.46
11692;BME280;33659;42.672;23.354;2023-02-07T06:04:58;95721.50;;;-0.67;55.71
11692;BME280;33659;42.672;23.354;2023-02-07T06:07:26;95727.97;;;-0.52;55.50
11692;BME280;33659;42.672;23.354;2023-02-07T06:09:53;95722.97;;;-0.47;55.48
11692;BME280;33659;42.672;23.354;2023-02-07T06:12:19;95731.56;;;-0.42;55.25
11692;BME280;33659;42.672;23.354;2023-02-07T06:14:46;95734.47;;;-0.38;55.31
11692;BME280;33659;42.672;23.354;2023-02-07T06:17:13;95733.88;;;-0.40;55.25
11692;BME280;33659;42.672;23.354;2023-02-07T06:19:39;95736.91;;;-0.43;55.00
11692;BME280;33659;42.672;23.354;2023-02-07T06:22:06;95736.81;;;-0.48;55.11
11692;BME280;33659;42.672;23.354;2023-02-07T06:24:34;95740.59;;;-0.51;55.42
11692;BME280;33659;42.672;23.354;2023-02-07T06:27:01;95739.38;;;-0.48;54.88
11692;BME280;33659;42.672;23.354;2023-02-07T06:29:27;95747.41;;;-0.57;54.89
11692;BME280;33659;42.672;23.354;2023-02-07T06:31:54;95744.84;;;-0.57;55.10
11692;BME280;33659;42.672;23.354;2023-02-07T06:34:21;95750.41;;;-0.48;55.00
11692;BME280;33659;42.672;23.354;2023-02-07T06:36:48;95752.31;;;-0.43;54.89
11692;BME280;33659;42.672;23.354;2023-02-07T06:39:14;95761.34;;;-0.41;54.91
11692;BME280;33659;42.672;23.354;2023-02-07T06:41:42;95752.63;;;-0.40;55.03
11692;BME280;33659;42.672;23.354;2023-02-07T06:44:09;95759.00;;;-0.42;54.79
11692;BME280;33659;42.672;23.354;2023-02-07T06:46:36;95759.66;;;-0.47;54.89
11692;BME280;33659;42.672;23.354;2023-02-07T06:49:03;95767.03;;;-0.50;54.67
11692;BME280;33659;42.672;23.354;2023-02-07T06:51:30;95767.59;;;-0.48;54.59
11692;BME280;33659;42.672;23.354;2023-02-07T06:53:57;95764.56;;;-0.45;54.66
11692;BME280;33659;42.672;23.354;2023-02-07T06:56:24;95762.13;;;-0.64;55.13
11692;BME280;33659;42.672;23.354;2023-02-07T06:58:52;95761.66;;;-0.61;55.17
11692;BME280;33659;42.672;23.354;2023-02-07T07:01:18;95766.78;;;-0.61;54.86
11692;BME280;33659;42.672;23.354;2023-02-07T07:03:46;95760.00;;;-0.67;54.72
11692;BME280;33659;42.672;23.354;2023-02-07T07:06:13;95767.91;;;-0.68;54.38
11692;BME280;33659;42.672;23.354;2023-02-07T07:08:40;95766.00;;;-0.73;54.57
11692;BME280;33659;42.672;23.354;2023-02-07T07:11:07;95773.59;;;-0.66;54.63
11692;BME280;33659;42.672;23.354;2023-02-07T07:13:33;95780.63;;;-0.62;54.20
11692;BME280;33659;42.672;23.354;2023-02-07T07:16:01;95773.38;;;-0.65;54.10
11692;BME280;33659;42.672;23.354;2023-02-07T07:18:28;95770.25;;;-0.67;53.64
11692;BME280;33659;42.672;23.354;2023-02-07T07:20:55;95760.31;;;-0.75;53.73
11692;BME280;33659;42.672;23.354;2023-02-07T07:23:22;95772.59;;;-0.77;53.74
11692;BME280;33659;42.672;23.354;2023-02-07T07:25:49;95763.53;;;-0.79;53.64
11692;BME280;33659;42.672;23.354;2023-02-07T07:28:15;95769.56;;;-0.74;53.63
11692;BME280;33659;42.672;23.354;2023-02-07T07:30:42;95773.69;;;-0.73;54.23
11692;BME280;33659;42.672;23.354;2023-02-07T07:33:10;95767.56;;;-0.72;54.04
11692;BME280;33659;42.672;23.354;2023-02-07T07:35:37;95777.81;;;-0.72;54.00
11692;BME280;33659;42.672;23.354;2023-02-07T07:38:03;95769.69;;;-0.69;53.66
11692;BME280;33659;42.672;23.354;2023-02-07T07:40:30;95757.88;;;-0.70;53.50
11692;BME280;33659;42.672;23.354;2023-02-07T07:42:57;95764.44;;;-0.74;53.71
11692;BME280;33659;42.672;23.354;2023-02-07T07:45:24;95773.59;;;-0.66;53.63
11692;BME280;33659;42.672;23.354;2023-02-07T07:47:50;95767.81;;;-0.62;53.59
11692;BME280;33659;42.672;23.354;2023-02-07T07:50:19;95761.25;;;-0.58;53.21
11692;BME280;33659;42.672;23.354;2023-02-07T07:52:45;95753.75;;;-0.59;54.04
11692;BME280;33659;42.672;23.354;2023-02-07T07:55:12;95762.03;;;-0.57;54.21
11692;BME280;33659;42.672;23.354;2023-02-07T07:57:39;95763.25;;;-0.48;53.72
11692;BME280;33659;42.672;23.354;2023-02-07T08:00:07;95759.66;;;-0.47;53.96
11692;BME280;33659;42.672;23.354;2023-02-07T08:02:33;95765.25;;;-0.27;53.17
11692;BME280;33659;42.672;23.354;2023-02-07T08:05:00;95763.69;;;-0.16;52.74
11692;BME280;33659;42.672;23.354;2023-02-07T08:07:28;95765.34;;;-0.10;52.29
11692;BME280;33659;42.672;23.354;2023-02-07T08:09:55;95766.00;;;-0.14;52.43
11692;BME280;33659;42.672;23.354;2023-02-07T08:12:21;95759.78;;;-0.18;52.06
11692;BME280;33659;42.672;23.354;2023-02-07T08:14:48;95757.66;;;-0.21;53.08
11692;BME280;33659;42.672;23.354;2023-02-07T08:17:15;95757.00;;;-0.17;52.96
11692;BME280;33659;42.672;23.354;2023-02-07T08:19:41;95770.38;;;-0.03;52.89
11692;BME280;33659;42.672;23.354;2023-02-07T08:22:08;95760.06;;;0.09;52.36
11692;BME280;33659;42.672;23.354;2023-02-07T08:24:36;95760.00;;;0.32;51.86
11692;BME280;33659;42.672;23.354;2023-02-07T08:27:03;95759.63;;;0.52;51.22
11692;BME280;33659;42.672;23.354;2023-02-07T08:29:30;95763.34;;;0.73;49.80
11692;BME280;33659;42.672;23.354;2023-02-07T08:31:56;95762.97;;;0.81;48.29
11692;BME280;33659;42.672;23.354;2023-02-07T08:34:23;95755.94;;;0.76;48.97
11692;BME280;33659;42.672;23.354;2023-02-07T08:36:53;95760.53;;;0.74;48.55
11692;BME280;33659;42.672;23.354;2023-02-07T08:39:19;95755.72;;;0.78;49.15
11692;BME280;33659;42.672;23.354;2023-02-07T08:41:48;95761.50;;;0.85;48.82
11692;BME280;33659;42.672;23.354;2023-02-07T08:44:14;95752.38;;;0.94;48.34
11692;BME280;33659;42.672;23.354;2023-02-07T08:46:41;95762.38;;;1.07;48.42
11692;BME280;33659;42.672;23.354;2023-02-07T08:49:08;95761.38;;;0.92;49.21
11692;BME280;33659;42.672;23.354;2023-02-07T08:51:34;95753.31;;;0.88;48.24
11692;BME280;33659;42.672;23.354;2023-02-07T08:54:01;95768.00;;;0.76;48.43
11692;BME280;33659;42.672;23.354;2023-02-07T08:56:28;95764.91;;;0.74;49.41
11692;BME280;33659;42.672;23.354;2023-02-07T08:58:56;95762.34;;;0.74;49.95
11692;BME280;33659;42.672;23.354;2023-02-07T09:01:22;95764.66;;;0.75;49.42
11692;BME280;33659;42.672;23.354;2023-02-07T09:03:49;95765.09;;;0.84;49.25
11692;BME280;33659;42.672;23.354;2023-02-07T09:06:16;95766.56;;;0.80;48.25
11692;BME280;33659;42.672;23.354;2023-02-07T09:08:43;95762.28;;;0.86;48.57
11692;BME280;33659;42.672;23.354;2023-02-07T09:11:09;95761.94;;;0.82;49.13
11692;BME280;33659;42.672;23.354;2023-02-07T09:13:36;95765.78;;;0.79;50.47
11692;BME280;33659;42.672;23.354;2023-02-07T09:16:04;95763.72;;;0.65;50.38
11692;BME280;33659;42.672;23.354;2023-02-07T09:18:31;95771.47;;;0.53;50.99
11692;BME280;33659;42.672;23.354;2023-02-07T09:20:59;95761.00;;;0.43;51.10
11692;BME280;33659;42.672;23.354;2023-02-07T09:23:25;95768.41;;;0.28;50.86
11692;BME280;33659;42.672;23.354;2023-02-07T09:25:52;95766.81;;;0.38;50.82
11692;BME280;33659;42.672;23.354;2023-02-07T09:28:20;95767.38;;;0.69;50.10
11692;BME280;33659;42.672;23.354;2023-02-07T09:30:47;95767.06;;;1.11;50.38
11692;BME280;33659;42.672;23.354;2023-02-07T09:33:15;95770.69;;;1.43;49.00
11692;BME280;33659;42.672;23.354;2023-02-07T09:35:44;95759.75;;;1.36;48.62
11692;BME280;33659;42.672;23.354;2023-02-07T09:38:12;95750.94;;;1.32;47.85
11692;BME280;33659;42.672;23.354;2023-02-07T09:40:40;95762.53;;;1.34;47.82
11692;BME280;33659;42.672;23.354;2023-02-07T09:43:13;95758.91;;;1.30;47.30
11692;BME280;33659;42.672;23.354;2023-02-07T09:45:45;95753.19;;;1.28;47.82
11692;BME280;33659;42.672;23.354;2023-02-07T09:48:18;95749.94;;;1.33;48.08
11692;BME280;33659;42.672;23.354;2023-02-07T09:50:49;95754.59;;;1.19;48.59
11692;BME280;33659;42.672;23.354;2023-02-07T09:53:19;95744.56;;;1.18;48.46
11692;BME280;33659;42.672;23.354;2023-02-07T09:55:50;95741.19;;;1.34;48.58
11692;BME280;33659;42.672;23.354;2023-02-07T09:58:25;95734.25;;;1.51;47.78
11692;BME280;33659;42.672;23.354;2023-02-07T10:00:58;95741.19;;;1.68;47.58
11692;BME280;33659;42.672;23.354;2023-02-07T10:03:27;95742.28;;;1.94;47.69
11692;BME280;33659;42.672;23.354;2023-02-07T10:05:58;95714.47;;;2.17;46.78
11692;BME280;33659;42.672;23.354;2023-02-07T10:08:26;95725.06;;;2.43;46.39
11692;BME280;33659;42.672;23.354;2023-02-07T10:11:04;95730.97;;;2.38;47.41
11692;BME280;33659;42.672;23.354;2023-02-07T10:13:50;95725.44;;;2.30;46.33
11692;BME280;33659;42.672;23.354;2023-02-07T10:16:28;95712.56;;;2.30;46.68
11692;BME280;33659;42.672;23.354;2023-02-07T10:19:04;95707.06;;;1.99;47.25
11692;BME280;33659;42.672;23.354;2023-02-07T10:21:42;95712.47;;;1.59;47.82
11692;BME280;33659;42.672;23.354;2023-02-07T10:24:28;95707.19;;;1.32;48.81
11692;BME280;33659;42.672;23.354;2023-02-07T10:27:03;95712.13;;;1.17;50.41
11692;BME280;33659;42.672;23.354;2023-02-07T10:29:44;95697.63;;;1.11;50.03
11692;BME280;33659;42.672;23.354;2023-02-07T10:32:18;95699.50;;;0.98;50.04
11692;BME280;33659;42.672;23.354;2023-02-07T10:34:49;95696.75;;;0.88;50.73
11692;BME280;33659;42.672;23.354;2023-02-07T10:37:18;95709.44;;;0.78;51.10
11692;BME280;33659;42.672;23.354;2023-02-07T10:39:50;95708.09;;;0.59;50.82
11692;BME280;33659;42.672;23.354;2023-02-07T10:42:18;95703.63;;;0.54;51.05
11692;BME280;33659;42.672;23.354;2023-02-07T10:44:46;95697.56;;;0.60;51.15
11692;BME280;33659;42.672;23.354;2023-02-07T10:47:14;95702.56;;;0.84;50.67
11692;BME280;33659;42.672;23.354;2023-02-07T10:49:43;95693.31;;;1.33;48.50
11692;BME280;33659;42.672;23.354;2023-02-07T10:52:25;95684.56;;;1.51;48.52
11692;BME280;33659;42.672;23.354;2023-02-07T10:54:53;95679.03;;;1.81;49.43
11692;BME280;33659;42.672;23.354;2023-02-07T10:57:20;95683.31;;;2.41;47.77
11692;BME280;33659;42.672;23.354;2023-02-07T10:59:48;95683.06;;;2.42;47.25
11692;BME280;33659;42.672;23.354;2023-02-07T11:02:47;95678.53;;;2.28;46.86
11692;BME280;33659;42.672;23.354;2023-02-07T11:05:34;95674.16;;;2.28;46.88
11692;BME280;33659;42.672;23.354;2023-02-07T11:08:04;95673.44;;;2.33;45.86
11692;BME280;33659;42.672;23.354;2023-02-07T11:10:35;95668.50;;;2.31;44.21
11692;BME280;33659;42.672;23.354;2023-02-07T11:13:04;95672.34;;;2.29;44.70
11692;BME280;33659;42.672;23.354;2023-02-07T11:15:47;95666.69;;;2.32;44.39
11692;BME280;33659;42.672;23.354;2023-02-07T11:18:41;95660.41;;;2.77;44.08
11692;BME280;33659;42.672;23.354;2023-02-07T11:21:21;95658.13;;;3.12;43.06
11692;BME280;33659;42.672;23.354;2023-02-07T11:23:51;95654.88;;;2.90;43.20
11692;BME280;33659;42.672;23.354;2023-02-07T11:26:20;95652.56;;;2.61;44.97
11692;BME280;33659;42.672;23.354;2023-02-07T11:28:51;95660.94;;;2.47;44.95
11692;BME280;33659;42.672;23.354;2023-02-07T11:31:25;95659.47;;;2.29;45.66
11692;BME280;33659;42.672;23.354;2023-02-07T11:33:53;95653.72;;;2.22;45.71
11692;BME280;33659;42.672;23.354;2023-02-07T11:36:23;95642.38;;;2.23;46.44
11692;BME280;33659;42.672;23.354;2023-02-07T11:38:58;95649.09;;;2.24;45.46
11692;BME280;33659;42.672;23.354;2023-02-07T11:41:27;95642.56;;;2.16;45.22
11692;BME280;33659;42.672;23.354;2023-02-07T11:43:57;95655.91;;;2.35;43.96
11692;BME280;33659;42.672;23.354;2023-02-07T11:46:33;95650.75;;;2.35;44.12
11692;BME280;33659;42.672;23.354;2023-02-07T11:49:01;95639.63;;;2.29;44.71
11692;BME280;33659;42.672;23.354;2023-02-07T11:51:29;95642.88;;;2.20;44.76
11692;BME280;33659;42.672;23.354;2023-02-07T11:54:00;95638.06;;;2.01;45.10
11692;BME280;33659;42.672;23.354;2023-02-07T11:56:31;95642.19;;;1.80;45.43
11692;BME280;33659;42.672;23.354;2023-02-07T11:59:02;95637.84;;;1.81;45.50
11692;BME280;33659;42.672;23.354;2023-02-07T12:01:32;95634.69;;;1.79;45.73
11692;BME280;33659;42.672;23.354;2023-02-07T12:04:01;95639.16;;;1.61;45.95
11692;BME280;33659;42.672;23.354;2023-02-07T12:06:34;95628.84;;;1.61;46.28
11692;BME280;33659;42.672;23.354;2023-02-07T12:09:15;95643.28;;;1.62;45.58
11692;BME280;33659;42.672;23.354;2023-02-07T12:11:45;95636.06;;;1.65;45.88
11692;BME280;33659;42.672;23.354;2023-02-07T12:14:18;95635.31;;;1.64;45.59
11692;BME280;33659;42.672;23.354;2023-02-07T12:16:50;95635.72;;;1.78;45.82
11692;BME280;33659;42.672;23.354;2023-02-07T12:19:20;95642.63;;;1.94;44.88
11692;BME280;33659;42.672;23.354;2023-02-07T12:21:55;95641.94;;;2.31;44.16
11692;BME280;33659;42.672;23.354;2023-02-07T12:24:29;95634.22;;;2.90;43.51
11692;BME280;33659;42.672;23.354;2023-02-07T12:27:01;95625.72;;;3.32;42.01
11692;BME280;33659;42.672;23.354;2023-02-07T12:29:43;95635.03;;;3.90;41.38
11692;BME280;33659;42.672;23.354;2023-02-07T12:32:20;95634.81;;;4.12;41.68
11692;BME280;33659;42.672;23.354;2023-02-07T12:34:55;95640.06;;;4.43;41.22
11692;BME280;33659;42.672;23.354;2023-02-07T12:37:26;95616.81;;;4.83;39.46
11692;BME280;33659;42.672;23.354;2023-02-07T12:40:02;95628.22;;;5.03;38.62
11692;BME280;33659;42.672;23.354;2023-02-07T12:42:36;95635.44;;;5.11;38.87
11692;BME280;33659;42.672;23.354;2023-02-07T12:45:05;95624.06;;;4.92;38.99
11692;BME280;33659;42.672;23.354;2023-02-07T12:47:47;95621.97;;;4.68;39.09
11692;BME280;33659;42.672;23.354;2023-02-07T12:50:25;95634.41;;;4.46;39.51
11692;BME280;33659;42.672;23.354;2023-02-07T12:53:03;95630.19;;;4.14;39.86
11692;BME280;33659;42.672;23.354;2023-02-07T12:55:47;95621.59;;;3.88;40.86
11692;BME280;33659;42.672;23.354;2023-02-07T12:58:39;95616.09;;;3.69;40.75
11692;BME280;33659;42.672;23.354;2023-02-07T13:01:14;95623.19;;;3.47;41.08
11692;BME280;33659;42.672;23.354;2023-02-07T13:04:10;95620.13;;;3.08;41.31
11692;BME280;33659;42.672;23.354;2023-02-07T13:06:48;95622.19;;;3.53;40.30